createdAt,value
2019-02-06T00:00:48.658Z,16.40
2019-02-06T00:03:21.085Z,16.40
2019-02-06T00:05:50.204Z,16.30
2019-02-06T00:08:19.318Z,16.40
2019-02-06T00:10:48.360Z,16.40
2019-02-06T00:13:17.411Z,16.40
2019-02-06T00:15:46.546Z,16.40
2019-02-06T00:18:15.641Z,16.40
2019-02-06T00:20:44.621Z,16.40
2019-02-06T00:23:13.664Z,16.40
2019-02-06T00:25:42.705Z,16.40
2019-02-06T00:28:11.738Z,16.40
2019-02-06T00:30:40.882Z,16.30
2019-02-06T00:33:10.306Z,16.30
2019-02-06T00:35:39.357Z,16.30
2019-02-06T00:38:08.429Z,16.30
2019-02-06T00:40:37.459Z,16.30
2019-02-06T00:43:06.542Z,16.30
2019-02-06T00:45:35.641Z,16.30
2019-02-06T00:48:04.904Z,16.30
2019-02-06T00:50:33.958Z,16.30
2019-02-06T00:53:02.949Z,16.30
2019-02-06T00:55:32.064Z,16.30
2019-02-06T00:58:01.070Z,16.20
2019-02-06T01:00:30.073Z,16.20
2019-02-06T01:02:59.554Z,16.20
2019-02-06T01:05:37.871Z,16.20
2019-02-06T01:07:59.350Z,16.20
2019-02-06T01:10:28.627Z,16.20
2019-02-06T01:12:57.718Z,16.20
2019-02-06T01:15:26.765Z,16.20
2019-02-06T01:17:56.110Z,16.20
2019-02-06T01:20:25.160Z,16.20
2019-02-06T01:22:54.212Z,16.20
2019-02-06T01:25:23.270Z,16.20
2019-02-06T01:27:52.257Z,16.20
2019-02-06T01:30:23.794Z,16.20
2019-02-06T01:32:52.855Z,16.20
2019-02-06T01:35:21.883Z,16.20
2019-02-06T01:37:50.929Z,16.20
2019-02-06T01:40:21.540Z,16.20
2019-02-06T01:42:50.611Z,16.20
2019-02-06T01:45:20.318Z,16.10
2019-02-06T01:47:49.333Z,16.10
2019-02-06T01:50:18.940Z,16.10
2019-02-06T01:52:48.112Z,16.10
2019-02-06T01:55:17.167Z,16.10
2019-02-06T01:57:46.197Z,16.10
2019-02-06T02:00:17.690Z,16.10
2019-02-06T02:02:46.747Z,16.10
2019-02-06T02:05:18.028Z,16.10
2019-02-06T02:07:47.367Z,16.10
2019-02-06T02:10:16.433Z,16.10
2019-02-06T02:12:45.484Z,16.10
2019-02-06T02:15:15.106Z,16.10
2019-02-06T02:17:44.300Z,16.10
2019-02-06T02:20:16.817Z,16.10
2019-02-06T02:22:45.893Z,16.10
2019-02-06T02:25:15.020Z,16.10
2019-02-06T02:27:44.073Z,16.10
2019-02-06T02:30:15.808Z,16.00
2019-02-06T02:32:44.858Z,16.00
2019-02-06T02:35:13.919Z,16.00
2019-02-06T02:37:43.043Z,16.00
2019-02-06T02:40:12.123Z,16.00
2019-02-06T02:42:41.146Z,16.00
2019-02-06T02:45:11.681Z,16.00
2019-02-06T02:47:40.886Z,16.00
2019-02-06T02:50:10.182Z,16.00
2019-02-06T02:52:39.201Z,16.00
2019-02-06T02:55:08.558Z,16.00
2019-02-06T02:57:37.610Z,16.00
2019-02-06T03:00:11.366Z,16.00
2019-02-06T03:02:49.661Z,16.00
2019-02-06T03:05:24.647Z,16.00
2019-02-06T03:07:53.799Z,16.00
2019-02-06T03:10:22.862Z,16.00
2019-02-06T03:12:51.967Z,16.00
2019-02-06T03:15:21.505Z,16.00
2019-02-06T03:17:50.578Z,16.00
2019-02-06T03:20:19.637Z,16.00
2019-02-06T03:22:48.680Z,16.00
2019-02-06T03:25:17.767Z,16.00
2019-02-06T03:27:46.801Z,16.00
2019-02-06T03:30:16.268Z,15.90
2019-02-06T03:32:45.295Z,15.90
2019-02-06T03:35:14.330Z,15.90
2019-02-06T03:37:43.367Z,15.90
2019-02-06T03:40:12.706Z,15.90
2019-02-06T03:42:41.749Z,15.90
2019-02-06T03:45:11.168Z,15.90
2019-02-06T03:47:40.207Z,16.00
2019-02-06T03:50:11.552Z,16.00
2019-02-06T03:52:40.595Z,16.00
2019-02-06T03:55:09.985Z,16.00
2019-02-06T03:57:39.037Z,15.90
2019-02-06T04:00:10.726Z,16.00
2019-02-06T04:02:39.850Z,16.00
2019-02-06T04:05:09.713Z,16.00
2019-02-06T04:07:38.757Z,16.00
2019-02-06T04:10:08.929Z,15.90
2019-02-06T04:12:37.990Z,15.90
2019-02-06T04:15:07.838Z,15.90
2019-02-06T04:17:36.891Z,15.90
2019-02-06T04:20:06.581Z,15.90
2019-02-06T04:22:35.650Z,15.90
2019-02-06T04:25:04.769Z,15.90
2019-02-06T04:27:33.817Z,15.90
2019-02-06T04:30:02.869Z,15.90
2019-02-06T04:32:32.101Z,15.90
2019-02-06T04:35:01.249Z,15.90
2019-02-06T04:37:30.310Z,15.90
2019-02-06T04:39:59.352Z,15.90
2019-02-06T04:42:28.397Z,15.90
2019-02-06T04:44:57.458Z,15.90
2019-02-06T04:47:26.829Z,15.90
2019-02-06T04:49:55.997Z,15.90
2019-02-06T04:52:25.028Z,15.90
2019-02-06T04:54:54.067Z,15.90
2019-02-06T04:57:23.114Z,15.90
2019-02-06T04:59:52.247Z,15.90
2019-02-06T05:02:21.661Z,15.90
2019-02-06T05:04:50.834Z,15.90
2019-02-06T05:07:19.880Z,15.90
2019-02-06T05:09:48.926Z,15.90
2019-02-06T05:12:17.955Z,15.90
2019-02-06T05:14:46.949Z,15.80
2019-02-06T05:17:15.983Z,15.80
2019-02-06T05:19:45.332Z,15.80
2019-02-06T05:22:14.359Z,15.90
2019-02-06T05:24:43.409Z,15.80
2019-02-06T05:27:12.398Z,15.90
2019-02-06T05:29:41.428Z,15.90
2019-02-06T05:32:10.473Z,15.90
2019-02-06T05:34:39.677Z,15.90
2019-02-06T05:37:08.789Z,15.90
2019-02-06T05:39:37.814Z,16.00
2019-02-06T05:42:06.884Z,16.10
2019-02-06T05:44:35.896Z,16.10
2019-02-06T05:47:04.955Z,16.20
2019-02-06T05:49:34.043Z,16.20
2019-02-06T05:52:03.087Z,16.30
2019-02-06T05:54:32.157Z,16.40
2019-02-06T05:57:01.253Z,16.50
2019-02-06T05:59:30.290Z,16.50
2019-02-06T06:02:09.744Z,16.60
2019-02-06T06:04:39.199Z,16.70
2019-02-06T06:07:08.325Z,16.80
2019-02-06T06:09:37.402Z,16.80
2019-02-06T06:12:06.438Z,16.90
2019-02-06T06:14:35.461Z,17.00
2019-02-06T06:17:04.535Z,17.00
2019-02-06T06:19:35.129Z,17.00
2019-02-06T06:22:04.385Z,17.00
2019-02-06T06:24:33.387Z,17.10
2019-02-06T06:27:02.409Z,17.00
2019-02-06T06:29:31.538Z,17.10
2019-02-06T06:32:00.558Z,17.10
2019-02-06T06:34:29.676Z,17.10
2019-02-06T06:36:58.995Z,17.10
2019-02-06T06:39:27.996Z,17.00
2019-02-06T06:41:57.072Z,17.10
2019-02-06T06:44:27.581Z,17.00
2019-02-06T06:46:56.598Z,17.00
2019-02-06T06:49:25.744Z,17.00
2019-02-06T06:51:55.133Z,16.90
2019-02-06T06:54:24.154Z,16.90
2019-02-06T06:56:53.190Z,16.90
2019-02-06T06:59:22.212Z,16.90
2019-02-06T07:01:51.254Z,16.90
2019-02-06T07:04:20.280Z,16.80
2019-02-06T07:06:49.356Z,16.80
2019-02-06T07:09:18.425Z,16.80
2019-02-06T07:11:47.458Z,16.80
2019-02-06T07:14:16.498Z,16.70
2019-02-06T07:16:45.519Z,16.70
2019-02-06T07:19:14.542Z,16.70
2019-02-06T07:21:43.662Z,16.70
2019-02-06T07:24:12.909Z,16.70
2019-02-06T07:26:41.873Z,16.60
2019-02-06T07:29:10.933Z,16.60
2019-02-06T07:31:39.970Z,16.60
2019-02-06T07:34:09.398Z,16.60
2019-02-06T07:36:38.456Z,16.50
2019-02-06T07:39:08.837Z,16.50
2019-02-06T07:41:37.875Z,16.50
2019-02-06T07:44:06.925Z,16.50
2019-02-06T07:46:35.955Z,16.50
2019-02-06T07:49:05.207Z,16.40
2019-02-06T07:51:34.278Z,16.40
2019-02-06T07:54:03.594Z,16.40
2019-02-06T07:56:32.566Z,16.40
2019-02-06T07:59:01.638Z,16.30
2019-02-06T08:01:30.669Z,16.30
2019-02-06T08:03:59.718Z,16.30
2019-02-06T08:06:28.789Z,16.30
2019-02-06T08:08:57.899Z,16.30
2019-02-06T08:11:26.940Z,16.30
2019-02-06T08:13:56.020Z,16.20
2019-02-06T08:16:25.057Z,16.20
2019-02-06T08:18:54.170Z,16.20
2019-02-06T08:21:23.237Z,16.20
2019-02-06T08:23:52.505Z,16.20
2019-02-06T08:26:21.762Z,16.10
2019-02-06T08:28:50.801Z,16.10
2019-02-06T08:31:19.826Z,16.10
2019-02-06T08:33:48.881Z,16.10
2019-02-06T08:36:17.907Z,16.10
2019-02-06T08:38:47.965Z,16.10
2019-02-06T08:41:17.648Z,16.10
2019-02-06T08:43:46.652Z,16.00
2019-02-06T08:46:15.654Z,16.10
2019-02-06T08:48:44.690Z,16.10
2019-02-06T08:51:13.748Z,16.10
2019-02-06T08:53:42.732Z,16.10
2019-02-06T08:56:11.778Z,16.10
2019-02-06T08:58:40.825Z,16.10
2019-02-06T09:01:10.245Z,16.10
2019-02-06T09:03:39.717Z,16.10
2019-02-06T09:06:08.764Z,16.10
2019-02-06T09:08:37.836Z,16.10
2019-02-06T09:11:06.854Z,16.10
2019-02-06T09:13:35.903Z,16.10
2019-02-06T09:16:04.940Z,16.10
2019-02-06T09:18:33.982Z,16.10
2019-02-06T09:21:03.036Z,16.10
2019-02-06T09:23:32.058Z,16.10
2019-02-06T09:26:01.117Z,16.10
2019-02-06T09:28:30.382Z,16.00
2019-02-06T09:30:59.410Z,16.10
2019-02-06T09:33:28.440Z,16.00
2019-02-06T09:35:57.441Z,16.00
2019-02-06T09:38:26.460Z,16.00
2019-02-06T09:40:55.602Z,16.00
2019-02-06T09:43:27.447Z,16.00
2019-02-06T09:45:57.085Z,15.90
2019-02-06T09:48:26.235Z,16.00
2019-02-06T09:50:55.264Z,15.90
2019-02-06T09:53:24.305Z,15.90
2019-02-06T09:55:53.459Z,16.00
2019-02-06T09:58:22.496Z,16.00
2019-02-06T10:00:51.541Z,15.90
2019-02-06T10:03:20.596Z,16.00
2019-02-06T10:05:49.608Z,16.00
2019-02-06T10:08:18.619Z,16.00
2019-02-06T10:10:47.657Z,16.00
2019-02-06T10:13:16.765Z,16.00
2019-02-06T10:15:46.068Z,16.00
2019-02-06T10:18:15.118Z,16.00
2019-02-06T10:20:49.680Z,16.00
2019-02-06T10:23:20.011Z,16.00
2019-02-06T10:25:49.002Z,16.00
2019-02-06T10:28:18.055Z,16.00
2019-02-06T10:30:49.186Z,16.00
2019-02-06T10:33:19.097Z,16.00
2019-02-06T10:35:48.369Z,16.00
2019-02-06T10:38:17.390Z,16.00
2019-02-06T10:40:46.425Z,16.00
2019-02-06T10:43:15.490Z,16.00
2019-02-06T10:45:44.497Z,16.00
2019-02-06T10:48:13.597Z,16.00
2019-02-06T10:50:48.218Z,16.00
2019-02-06T10:53:17.266Z,16.00
2019-02-06T10:55:46.302Z,15.90
2019-02-06T10:58:15.346Z,15.90
2019-02-06T11:00:47.516Z,15.90
2019-02-06T11:03:16.662Z,15.90
2019-02-06T11:05:45.712Z,16.00
2019-02-06T11:08:14.741Z,16.00
2019-02-06T11:10:43.797Z,16.00
2019-02-06T11:13:12.957Z,16.00
2019-02-06T11:15:41.957Z,16.00
2019-02-06T11:18:10.964Z,16.00
2019-02-06T11:20:40.154Z,16.00
2019-02-06T11:23:09.202Z,16.00
2019-02-06T11:25:38.260Z,16.00
2019-02-06T11:28:08.105Z,16.00
2019-02-06T11:30:37.258Z,16.10
2019-02-06T11:33:06.525Z,16.00
2019-02-06T11:35:35.577Z,16.00
2019-02-06T11:38:06.369Z,16.00
2019-02-06T11:40:35.410Z,16.00
2019-02-06T11:43:04.786Z,16.00
2019-02-06T11:45:33.792Z,16.00
2019-02-06T11:48:02.829Z,16.00
2019-02-06T11:50:39.316Z,16.00
2019-02-06T11:53:19.632Z,16.00
2019-02-06T11:55:48.988Z,15.90
2019-02-06T11:58:18.117Z,16.00
2019-02-06T12:00:54.633Z,15.90
2019-02-06T12:03:25.215Z,16.00
2019-02-06T12:05:54.312Z,16.00
2019-02-06T12:08:23.304Z,15.90
2019-02-06T12:10:52.463Z,16.00
2019-02-06T12:13:21.513Z,15.90
2019-02-06T12:15:50.548Z,15.90
2019-02-06T12:18:19.665Z,16.00
2019-02-06T12:20:48.730Z,16.00
2019-02-06T12:23:17.759Z,16.00
2019-02-06T12:25:47.107Z,16.00
2019-02-06T12:28:16.332Z,16.00
2019-02-06T12:30:46.685Z,16.00
2019-02-06T12:33:15.731Z,16.10
2019-02-06T12:35:44.765Z,16.00
2019-02-06T12:38:13.806Z,16.00
2019-02-06T12:40:42.826Z,16.00
2019-02-06T12:43:11.817Z,16.00
2019-02-06T12:45:40.833Z,16.00
2019-02-06T12:48:09.833Z,16.00
2019-02-06T12:50:38.958Z,16.00
2019-02-06T12:53:07.986Z,16.00
2019-02-06T12:55:37.802Z,16.00
2019-02-06T12:58:07.662Z,16.00
2019-02-06T13:00:37.560Z,16.00
2019-02-06T13:03:06.558Z,16.00
2019-02-06T13:05:35.656Z,16.00
2019-02-06T13:08:04.902Z,15.90
2019-02-06T13:10:34.590Z,15.90
2019-02-06T13:13:03.691Z,16.00
2019-02-06T13:15:33.030Z,15.90
2019-02-06T13:18:02.153Z,15.90
2019-02-06T13:20:31.319Z,16.00
2019-02-06T13:23:00.363Z,16.00
2019-02-06T13:25:29.404Z,16.00
2019-02-06T13:27:58.458Z,16.00
2019-02-06T13:30:29.517Z,16.00
2019-02-06T13:32:58.577Z,16.00
2019-02-06T13:35:27.645Z,16.00
2019-02-06T13:37:56.666Z,16.00
2019-02-06T13:40:26.720Z,16.00
2019-02-06T13:42:55.759Z,16.00
2019-02-06T13:45:29.860Z,16.00
2019-02-06T13:47:58.972Z,16.00
2019-02-06T13:50:28.269Z,16.00
2019-02-06T13:52:57.325Z,16.00
2019-02-06T13:55:26.383Z,16.00
2019-02-06T13:57:55.447Z,15.90
2019-02-06T14:00:26.640Z,15.90
2019-02-06T14:02:55.700Z,15.90
2019-02-06T14:05:26.249Z,15.90
2019-02-06T14:07:57.173Z,15.90
2019-02-06T14:10:26.428Z,15.90
2019-02-06T14:12:55.486Z,16.00
2019-02-06T14:15:26.222Z,15.90
2019-02-06T14:17:55.269Z,15.90
2019-02-06T14:20:24.354Z,16.00
2019-02-06T14:23:19.097Z,16.00
2019-02-06T14:25:55.971Z,16.00
2019-02-06T14:28:48.237Z,16.00
2019-02-06T14:32:15.743Z,16.00
2019-02-06T14:35:24.238Z,16.00
2019-02-06T14:38:32.869Z,16.00
2019-02-06T14:41:30.481Z,16.00
2019-02-06T14:44:33.178Z,15.90
2019-02-06T14:47:52.280Z,15.90
2019-02-06T14:50:54.039Z,15.90
2019-02-06T14:53:50.617Z,15.90
2019-02-06T14:56:58.237Z,15.90
2019-02-06T14:59:35.325Z,15.90
2019-02-06T15:02:49.246Z,15.90
2019-02-06T15:05:43.975Z,15.90
2019-02-06T15:08:47.745Z,15.90
2019-02-06T15:11:54.834Z,15.90
2019-02-06T15:14:36.001Z,15.90
2019-02-06T15:18:07.523Z,15.90
2019-02-06T15:21:17.665Z,15.90
2019-02-06T15:24:39.773Z,15.90
2019-02-06T15:27:44.422Z,15.90
2019-02-06T15:30:53.103Z,15.90
2019-02-06T15:33:53.735Z,15.90
2019-02-06T15:36:47.815Z,15.90
2019-02-06T15:39:53.954Z,15.90
2019-02-06T15:42:54.126Z,15.90
2019-02-06T15:45:41.905Z,15.90
2019-02-06T15:48:39.597Z,15.90
2019-02-06T15:51:21.253Z,15.90
2019-02-06T15:54:29.263Z,15.80
2019-02-06T15:57:39.434Z,15.80
2019-02-06T16:00:39.866Z,15.80
2019-02-06T16:04:05.933Z,15.80
2019-02-06T16:06:52.912Z,15.80
2019-02-06T16:09:45.653Z,15.80
2019-02-06T16:12:50.336Z,15.80
2019-02-06T16:16:05.612Z,15.80
2019-02-06T16:19:01.966Z,15.90
2019-02-06T16:22:15.265Z,15.90
2019-02-06T16:25:01.859Z,15.90
2019-02-06T16:28:02.857Z,15.90
2019-02-06T16:31:01.749Z,15.90
2019-02-06T16:33:57.569Z,15.90
2019-02-06T16:37:12.942Z,15.90
2019-02-06T16:40:38.533Z,15.90
2019-02-06T16:43:50.533Z,15.90
2019-02-06T16:47:12.962Z,15.90
2019-02-06T16:50:27.924Z,15.90
2019-02-06T16:53:42.524Z,15.90
2019-02-06T16:56:51.111Z,15.80
2019-02-06T16:59:51.782Z,15.80
2019-02-06T17:03:14.387Z,15.80
2019-02-06T17:06:51.486Z,15.80
2019-02-06T17:09:35.041Z,15.80
2019-02-06T17:12:31.308Z,15.80
2019-02-06T17:15:26.904Z,15.80
2019-02-06T17:18:20.270Z,15.80
2019-02-06T17:21:32.588Z,15.90
2019-02-06T17:24:47.728Z,15.90
2019-02-06T17:28:20.173Z,15.90
2019-02-06T17:31:44.024Z,16.00
2019-02-06T17:34:49.757Z,16.10
2019-02-06T17:37:49.531Z,16.20
2019-02-06T17:40:35.654Z,16.30
2019-02-06T17:43:29.690Z,16.50
2019-02-06T17:46:34.778Z,16.60
2019-02-06T17:49:47.101Z,16.70
2019-02-06T17:53:05.986Z,16.90
2019-02-06T17:55:35.055Z,17.00
2019-02-06T17:58:07.107Z,17.20
2019-02-06T18:00:57.382Z,17.30
2019-02-06T18:03:28.116Z,17.40
2019-02-06T18:05:57.166Z,17.50
2019-02-06T18:08:26.231Z,17.60
2019-02-06T18:10:55.273Z,17.70
2019-02-06T18:13:24.329Z,17.80
2019-02-06T18:15:53.412Z,18.00
2019-02-06T18:18:22.857Z,18.00
2019-02-06T18:20:52.003Z,18.10
2019-02-06T18:23:21.117Z,18.30
2019-02-06T18:25:50.145Z,18.20
2019-02-06T18:28:19.221Z,18.20
2019-02-06T18:30:48.216Z,18.20
2019-02-06T18:33:18.892Z,18.20
2019-02-06T18:35:47.981Z,18.20
2019-02-06T18:38:17.061Z,18.20
2019-02-06T18:40:46.103Z,18.30
2019-02-06T18:43:15.165Z,18.30
2019-02-06T18:45:44.310Z,18.30
2019-02-06T18:48:13.389Z,18.30
2019-02-06T18:50:42.453Z,18.30
2019-02-06T18:53:12.206Z,18.20
2019-02-06T18:55:41.353Z,18.20
2019-02-06T18:58:10.397Z,18.20
2019-02-06T19:00:39.484Z,18.20
2019-02-06T19:03:12.703Z,18.20
2019-02-06T19:05:41.720Z,18.20
2019-02-06T19:08:10.800Z,18.30
2019-02-06T19:10:39.802Z,18.20
2019-02-06T19:13:10.629Z,18.30
2019-02-06T19:15:39.680Z,18.20
2019-02-06T19:18:09.637Z,18.30
2019-02-06T19:20:38.719Z,18.30
2019-02-06T19:23:07.716Z,18.30
2019-02-06T19:25:36.826Z,18.30
2019-02-06T19:28:05.974Z,18.30
2019-02-06T19:30:37.295Z,18.30
2019-02-06T19:33:06.603Z,18.40
2019-02-06T19:35:35.618Z,18.40
2019-02-06T19:38:04.686Z,18.40
2019-02-06T19:40:33.717Z,18.40
2019-02-06T19:43:02.862Z,18.50
2019-02-06T19:45:31.990Z,18.50
2019-02-06T19:48:01.230Z,18.60
2019-02-06T19:50:32.597Z,18.60
2019-02-06T19:53:01.673Z,18.70
2019-02-06T19:55:30.758Z,18.70
2019-02-06T19:58:00.177Z,18.80
2019-02-06T20:00:29.681Z,18.90
2019-02-06T20:02:58.730Z,18.90
2019-02-06T20:05:27.979Z,19.00
2019-02-06T20:07:57.094Z,19.10
2019-02-06T20:10:33.072Z,19.10
2019-02-06T20:13:10.596Z,19.20
2019-02-06T20:15:32.845Z,19.20
2019-02-06T20:18:01.999Z,19.30
2019-02-06T20:20:31.272Z,19.30
2019-02-06T20:23:00.323Z,19.40
2019-02-06T20:25:29.396Z,19.40
2019-02-06T20:27:58.502Z,19.40
2019-02-06T20:30:28.310Z,19.40
2019-02-06T20:32:57.458Z,19.50
2019-02-06T20:35:26.510Z,19.50
2019-02-06T20:37:55.849Z,19.50
2019-02-06T20:40:27.427Z,19.60
2019-02-06T20:42:56.538Z,19.60
2019-02-06T20:45:25.601Z,19.60
2019-02-06T20:47:54.676Z,19.60
2019-02-06T20:50:25.975Z,19.70
2019-02-06T20:52:55.028Z,19.70
2019-02-06T20:55:24.073Z,19.70
2019-02-06T20:57:53.134Z,19.70
2019-02-06T21:00:27.582Z,19.70
2019-02-06T21:02:56.713Z,19.70
2019-02-06T21:05:25.770Z,19.60
2019-02-06T21:07:54.767Z,19.60
2019-02-06T21:10:25.383Z,19.60
2019-02-06T21:12:54.408Z,19.50
2019-02-06T21:15:23.458Z,19.50
2019-02-06T21:17:52.501Z,19.50
2019-02-06T21:20:22.012Z,19.40
2019-02-06T21:22:51.144Z,19.40
2019-02-06T21:25:20.631Z,19.30
2019-02-06T21:27:50.266Z,19.30
2019-02-06T21:30:26.867Z,19.30
2019-02-06T21:32:57.146Z,19.20
2019-02-06T21:35:26.254Z,19.20
2019-02-06T21:37:55.447Z,19.10
2019-02-06T21:40:29.147Z,19.10
2019-02-06T21:42:58.155Z,19.00
2019-02-06T21:45:27.145Z,19.00
2019-02-06T21:47:56.198Z,19.00
2019-02-06T21:50:25.337Z,18.90
2019-02-06T21:52:54.659Z,18.90
2019-02-06T21:55:23.730Z,18.80
2019-02-06T21:57:52.762Z,18.80
2019-02-06T22:00:26.903Z,18.80
2019-02-06T22:02:56.012Z,18.70
2019-02-06T22:05:25.192Z,18.70
2019-02-06T22:07:54.425Z,18.60
2019-02-06T22:10:23.509Z,18.60
2019-02-06T22:12:52.570Z,18.60
2019-02-06T22:15:23.555Z,18.50
2019-02-06T22:17:52.575Z,18.50
2019-02-06T22:20:21.701Z,18.50
2019-02-06T22:22:50.784Z,18.40
2019-02-06T22:25:19.838Z,18.40
2019-02-06T22:27:50.672Z,18.40
2019-02-06T22:30:21.670Z,18.30
2019-02-06T22:32:50.785Z,18.30
2019-02-06T22:35:19.937Z,18.30
2019-02-06T22:37:49.028Z,18.20
2019-02-06T22:40:19.553Z,18.20
2019-02-06T22:42:48.682Z,18.20
2019-02-06T22:45:19.339Z,18.20
2019-02-06T22:47:48.389Z,18.10
2019-02-06T22:50:19.251Z,18.10
2019-02-06T22:52:48.337Z,18.00
2019-02-06T22:55:17.384Z,18.00
2019-02-06T22:57:46.435Z,18.00
2019-02-06T23:00:53.393Z,18.00
2019-02-06T23:03:37.738Z,17.90
2019-02-06T23:06:08.305Z,17.90
2019-02-06T23:08:37.440Z,17.90
2019-02-06T23:11:07.704Z,17.80
2019-02-06T23:13:36.766Z,17.80
2019-02-06T23:16:05.822Z,17.80
2019-02-06T23:18:35.287Z,17.70
2019-02-06T23:21:04.333Z,17.70
2019-02-06T23:23:33.466Z,17.70
2019-02-06T23:26:02.543Z,17.70
2019-02-06T23:28:31.646Z,17.70
2019-02-06T23:31:00.721Z,17.60
2019-02-06T23:33:29.770Z,17.60
2019-02-06T23:35:58.769Z,17.60
2019-02-06T23:38:28.213Z,17.60
2019-02-06T23:40:57.285Z,17.50
2019-02-06T23:43:26.401Z,17.50
2019-02-06T23:45:55.448Z,17.50
2019-02-06T23:48:24.484Z,17.40
2019-02-06T23:50:53.514Z,17.40
2019-02-06T23:53:22.573Z,17.40
2019-02-06T23:55:51.625Z,17.40
2019-02-06T23:58:20.697Z,17.40
